Time;durP1;ratioP1;P1;durP2;ratioP2;P2;SDS_P1;SDS_P2;PMS_P1;PMS_P2;Temp;Humidity;BMP_temperature;BMP_pressure;BME280_temperature;BME280_humidity;BME280_pressure;Samples;Min_cycle;Max_cycle;Signal;HPM_P1;HPM_P2
2021/12/09 00:01:23;;;;;;;5.78;4.18;;;2.10;99.90;;;;;;5060816;28;20279;-59
2021/12/09 00:03:53;;;;;;;2.92;2.63;;;2.00;99.90;;;;;;5071569;28;20219;-62
2021/12/09 00:06:25;;;;;;;6.68;3.70;;;2.00;99.90;;;;;;5065669;28;20725;-61
2021/12/09 00:08:55;;;;;;;10.25;4.00;;;2.00;99.90;;;;;;5060897;28;20281;-59
2021/12/09 00:11:23;;;;;;;7.80;4.68;;;1.90;99.90;;;;;;5069057;28;20788;-59
2021/12/09 00:13:52;;;;;;;7.80;4.45;;;1.70;99.90;;;;;;5069444;28;20632;-60
2021/12/09 00:16:22;;;;;;;7.05;3.33;;;1.60;99.90;;;;;;5055783;28;20187;-60
2021/12/09 00:18:50;;;;;;;5.38;3.00;;;1.70;99.90;;;;;;5060740;28;20243;-60
2021/12/09 00:21:18;;;;;;;6.35;3.15;;;1.80;99.90;;;;;;5055748;28;20207;-60
2021/12/09 00:23:46;;;;;;;5.65;3.15;;;1.80;99.90;;;;;;5066620;28;20219;-60
2021/12/09 00:26:14;;;;;;;7.82;3.63;;;1.70;99.90;;;;;;5057835;28;20184;-61
2021/12/09 00:28:42;;;;;;;9.48;4.90;;;1.70;99.90;;;;;;5060989;28;20578;-60
2021/12/09 00:31:10;;;;;;;8.57;3.47;;;1.70;99.90;;;;;;5064318;28;20197;-60
2021/12/09 00:33:44;;;;;;;4.07;2.78;;;1.70;99.90;;;;;;5071296;28;20574;-60
2021/12/09 00:36:14;;;;;;;5.43;3.50;;;1.60;99.90;;;;;;5059248;28;20337;-62
2021/12/09 00:38:43;;;;;;;17.70;4.30;;;1.50;99.90;;;;;;5056816;28;20262;-61
2021/12/09 00:41:14;;;;;;;7.15;3.83;;;1.60;99.90;;;;;;5059923;28;20245;-59
2021/12/09 00:43:43;;;;;;;5.13;3.83;;;1.70;99.90;;;;;;5057636;28;20212;-60
2021/12/09 00:46:11;;;;;;;5.68;4.22;;;1.80;99.90;;;;;;5055066;28;20188;-61
2021/12/09 00:48:41;;;;;;;5.57;3.35;;;1.80;99.90;;;;;;5072538;28;20307;-60
2021/12/09 00:51:10;;;;;;;7.97;3.20;;;1.80;99.90;;;;;;5073302;28;20274;-60
2021/12/09 00:53:39;;;;;;;7.45;4.50;;;1.70;99.90;;;;;;5058140;28;20223;-60
2021/12/09 00:56:10;;;;;;;13.00;4.00;;;1.60;99.90;;;;;;5052924;28;20609;-61
2021/12/09 00:58:38;;;;;;;6.30;4.50;;;1.50;99.90;;;;;;5058832;28;20289;-60
2021/12/09 01:01:08;;;;;;;6.05;3.85;;;1.50;99.90;;;;;;5072776;28;20191;-59
2021/12/09 01:03:38;;;;;;;6.72;3.53;;;1.50;99.90;;;;;;5072491;28;20834;-60
2021/12/09 01:06:08;;;;;;;5.75;3.30;;;1.60;99.90;;;;;;5072720;28;20203;-61
2021/12/09 01:08:42;;;;;;;7.97;4.55;;;1.60;99.90;;;;;;5058739;27;20224;-60
2021/12/09 01:11:11;;;;;;;9.40;4.22;;;1.50;99.90;;;;;;5052742;28;20202;-60
2021/12/09 01:13:40;;;;;;;4.93;3.30;;;1.60;99.90;;;;;;5052885;28;20209;-60
2021/12/09 01:16:09;;;;;;;7.03;4.30;;;1.50;99.90;;;;;;5052127;28;20268;-61
2021/12/09 01:18:40;;;;;;;6.38;4.45;;;1.60;99.90;;;;;;5052245;28;20311;-59
2021/12/09 01:21:11;;;;;;;7.53;4.40;;;1.60;99.90;;;;;;5052699;28;20265;-60
2021/12/09 01:23:41;;;;;;;7.95;4.75;;;1.50;99.90;;;;;;5060544;28;20235;-60
2021/12/09 01:26:10;;;;;;;10.20;5.00;;;1.40;99.90;;;;;;5072162;28;20210;-61
2021/12/09 01:28:46;;;;;;;9.20;5.63;;;1.30;99.90;;;;;;5064675;28;20265;-60
2021/12/09 01:31:21;;;;;;;7.28;4.88;;;1.10;99.90;;;;;;5072345;28;20191;-60
2021/12/09 01:33:52;;;;;;;9.88;4.65;;;1.20;99.90;;;;;;5071509;28;20524;-60
2021/12/09 01:36:22;;;;;;;9.00;5.05;;;1.20;99.90;;;;;;5071701;28;20558;-61
2021/12/09 01:38:50;;;;;;;8.70;4.25;;;1.20;99.90;;;;;;5071786;28;20223;-59
2021/12/09 01:41:18;;;;;;;8.40;4.18;;;1.30;99.90;;;;;;5068004;28;20185;-60
2021/12/09 01:43:46;;;;;;;10.20;4.30;;;1.40;99.90;;;;;;5065716;28;20689;-60
2021/12/09 01:46:18;;;;;;;4.00;3.17;;;1.50;99.90;;;;;;5068285;28;20192;-62
2021/12/09 01:48:48;;;;;;;13.85;2.50;;;1.70;99.90;;;;;;5053823;28;20228;-60
2021/12/09 01:51:16;;;;;;;7.00;3.17;;;1.80;99.90;;;;;;5062137;28;20188;-60
2021/12/09 01:53:47;;;;;;;6.13;2.63;;;1.90;99.90;;;;;;5066053;28;20215;-60
2021/12/09 01:56:21;;;;;;;3.78;2.42;;;1.90;99.90;;;;;;5068896;28;20219;-60
2021/12/09 01:58:50;;;;;;;2.65;1.85;;;1.80;99.90;;;;;;5062230;28;20219;-61
2021/12/09 02:01:19;;;;;;;4.05;2.22;;;1.90;99.90;;;;;;5072104;28;20612;-60
2021/12/09 02:03:49;;;;;;;3.75;1.95;;;1.90;99.90;;;;;;5071385;28;20311;-59
2021/12/09 02:06:19;;;;;;;4.65;1.75;;;1.90;99.90;;;;;;5071790;28;20187;-61
2021/12/09 02:08:49;;;;;;;2.95;1.67;;;2.00;99.90;;;;;;5056647;28;20685;-62
2021/12/09 02:11:17;;;;;;;2.55;1.58;;;2.00;99.90;;;;;;5051662;28;20193;-60
2021/12/09 02:13:46;;;;;;;2.47;1.63;;;2.00;99.90;;;;;;5058537;28;20234;-60
2021/12/09 02:16:15;;;;;;;2.17;1.50;;;2.00;99.90;;;;;;5071665;28;20608;-62
2021/12/09 02:18:43;;;;;;;2.38;1.70;;;2.10;99.90;;;;;;5071287;28;20224;-61
2021/12/09 02:21:15;;;;;;;8.98;2.20;;;2.10;99.90;;;;;;5072290;28;20604;-60
2021/12/09 02:23:47;;;;;;;7.28;3.08;;;2.10;99.90;;;;;;5066167;28;20637;-60
2021/12/09 02:26:17;;;;;;;6.60;2.15;;;2.20;99.90;;;;;;5051279;28;20188;-61
2021/12/09 02:28:46;;;;;;;3.17;1.48;;;2.30;99.90;;;;;;5057633;28;20223;-61
2021/12/09 02:31:14;;;;;;;4.15;1.63;;;2.50;99.90;;;;;;5072044;28;20597;-60
2021/12/09 02:33:42;;;;;;;3.47;1.40;;;2.60;99.90;;;;;;5071266;28;20223;-60
2021/12/09 02:36:10;;;;;;;7.05;1.80;;;2.60;99.90;;;;;;5071133;28;20683;-61
2021/12/09 02:38:44;;;;;;;5.05;1.70;;;2.70;99.90;;;;;;5070470;28;20231;-62
2021/12/09 02:41:17;;;;;;;7.63;2.25;;;2.80;99.90;;;;;;5071266;28;20694;-60
2021/12/09 02:43:47;;;;;;;2.55;1.40;;;2.70;99.90;;;;;;5070297;28;20223;-59
2021/12/09 02:46:16;;;;;;;5.65;1.83;;;2.80;99.90;;;;;;5071357;28;20719;-61
2021/12/09 02:48:45;;;;;;;4.63;2.33;;;2.80;99.90;;;;;;5070566;28;20235;-61
2021/12/09 02:51:14;;;;;;;3.28;1.83;;;2.80;99.90;;;;;;5071304;28;20192;-59
2021/12/09 02:53:43;;;;;;;15.68;1.92;;;2.80;99.90;;;;;;5052155;28;20262;-59
2021/12/09 02:56:12;;;;;;;7.18;2.28;;;2.70;99.90;;;;;;5051236;28;20258;-62
2021/12/09 02:58:41;;;;;;;4.38;2.20;;;2.60;99.90;;;;;;5058780;28;20223;-61
2021/12/09 03:01:16;;;;;;;2.55;1.65;;;2.60;99.90;;;;;;5071254;28;20249;-59
2021/12/09 03:03:50;;;;;;;2.45;1.42;;;2.50;99.90;;;;;;5070714;28;20219;-60
2021/12/09 03:06:21;;;;;;;4.35;1.70;;;2.40;99.90;;;;;;5062783;28;20192;-61
2021/12/09 03:08:50;;;;;;;3.00;1.40;;;2.30;99.90;;;;;;5050697;28;20295;-61
2021/12/09 03:11:20;;;;;;;4.72;1.75;;;2.20;99.90;;;;;;5051030;28;20248;-60
2021/12/09 03:13:50;;;;;;;3.47;1.63;;;2.10;99.90;;;;;;5051111;28;20255;-59
2021/12/09 03:16:22;;;;;;;4.65;1.50;;;2.10;99.90;;;;;;5066716;28;20600;-60
2021/12/09 03:18:55;;;;;;;1.98;1.40;;;2.10;99.90;;;;;;5070533;28;20223;-61
2021/12/09 03:21:25;;;;;;;5.20;2.22;;;2.00;99.90;;;;;;5062010;28;20621;-60
2021/12/09 03:23:55;;;;;;;4.60;1.27;;;1.90;99.90;;;;;;5049075;28;20221;-59
2021/12/09 03:26:29;;;;;;;5.03;1.55;;;2.00;99.90;;;;;;5051208;28;20245;-61
2021/12/09 03:28:58;;;;;;;4.03;1.60;;;2.00;99.90;;;;;;5050676;28;20228;-61
2021/12/09 03:31:27;;;;;;;6.75;1.70;;;2.00;99.90;;;;;;5051144;28;20241;-60
2021/12/09 03:33:55;;;;;;;2.22;1.33;;;1.80;99.90;;;;;;5050124;28;20230;-59
2021/12/09 03:36:27;;;;;;;3.65;1.60;;;1.70;99.90;;;;;;5050939;28;20555;-61
2021/12/09 03:38:58;;;;;;;4.32;1.35;;;1.70;99.90;;;;;;5051184;28;20629;-61
2021/12/09 03:41:27;;;;;;;3.25;1.50;;;1.70;99.90;;;;;;5054719;28;20630;-60
2021/12/09 03:43:56;;;;;;;3.78;1.95;;;1.60;99.90;;;;;;5054331;28;20311;-60
2021/12/09 03:46:24;;;;;;;8.68;2.40;;;1.40;99.90;;;;;;5054217;28;20196;-60
2021/12/09 03:48:52;;;;;;;4.10;1.60;;;1.50;99.90;;;;;;5056284;28;20718;-61
2021/12/09 03:51:21;;;;;;;3.40;1.63;;;1.50;99.90;;;;;;5057959;28;20584;-60
2021/12/09 03:53:51;;;;;;;6.10;1.92;;;1.50;99.90;;;;;;5073197;28;20492;-59
2021/12/09 03:56:21;;;;;;;3.28;1.67;;;1.50;99.90;;;;;;5074314;28;20574;-62
2021/12/09 03:58:49;;;;;;;2.65;1.90;;;1.50;99.90;;;;;;5059851;28;20228;-61
2021/12/09 04:01:17;;;;;;;5.03;2.33;;;1.60;99.90;;;;;;5065111;28;20224;-60
2021/12/09 04:03:46;;;;;;;3.65;1.60;;;1.60;99.90;;;;;;5065400;28;20303;-61
2021/12/09 04:06:14;;;;;;;5.10;1.90;;;1.60;99.90;;;;;;5069502;28;20188;-61
2021/12/09 04:08:42;;;;;;;3.72;1.83;;;1.60;99.90;;;;;;5055783;28;20270;-61
2021/12/09 04:11:11;;;;;;;9.73;2.75;;;1.60;99.90;;;;;;5063876;28;20592;-60
2021/12/09 04:13:40;;;;;;;4.95;1.98;;;1.60;99.90;;;;;;5066979;28;20220;-59
2021/12/09 04:16:09;;;;;;;4.45;2.15;;;1.50;99.90;;;;;;5053511;28;20192;-61
2021/12/09 04:18:39;;;;;;;5.90;1.77;;;1.50;99.90;;;;;;5052232;28;20795;-61
2021/12/09 04:21:08;;;;;;;3.25;1.95;;;1.30;99.90;;;;;;5054187;28;20204;-60
2021/12/09 04:23:37;;;;;;;7.18;2.28;;;1.20;99.90;;;;;;5065397;28;20227;-60
2021/12/09 04:26:05;;;;;;;6.78;2.90;;;1.00;99.90;;;;;;5073601;28;20208;-60
2021/12/09 04:28:35;;;;;;;5.22;2.40;;;0.70;99.90;;;;;;5067305;28;20554;-61
2021/12/09 04:31:06;;;;;;;7.97;1.92;;;0.90;99.90;;;;;;5053688;28;20720;-61
2021/12/09 04:33:34;;;;;;;3.58;2.17;;;1.00;99.90;;;;;;5053145;28;20326;-59
2021/12/09 04:36:03;;;;;;;6.85;3.75;;;1.10;99.90;;;;;;5053039;28;20188;-60
2021/12/09 04:38:31;;;;;;;4.72;2.45;;;1.10;99.90;;;;;;5053475;28;20235;-61
2021/12/09 04:40:59;;;;;;;3.58;2.20;;;1.20;99.90;;;;;;5053357;28;20215;-59
2021/12/09 04:43:27;;;;;;;3.03;2.13;;;1.20;99.90;;;;;;5056748;28;20208;-59
2021/12/09 04:45:59;;;;;;;5.28;2.75;;;1.10;99.90;;;;;;5073196;28;20188;-61
2021/12/09 04:48:29;;;;;;;4.57;3.20;;;1.10;99.90;;;;;;5072648;28;20750;-62
2021/12/09 04:50:57;;;;;;;4.15;2.47;;;0.90;99.90;;;;;;5072533;28;20188;-59
2021/12/09 04:53:25;;;;;;;7.10;3.85;;;1.00;99.90;;;;;;5065293;28;20212;-60
2021/12/09 04:55:53;;;;;;;12.23;5.00;;;1.00;99.90;;;;;;5052911;28;20184;-61
2021/12/09 04:58:23;;;;;;;12.13;6.07;;;0.90;99.90;;;;;;5056512;28;20223;-61
2021/12/09 05:00:53;;;;;;;10.15;5.75;;;0.90;99.90;;;;;;5072840;28;20265;-60
2021/12/09 05:03:21;;;;;;;14.77;5.90;;;1.00;99.90;;;;;;5072642;28;20285;-60
2021/12/09 05:05:53;;;;;;;12.10;5.13;;;1.10;99.90;;;;;;5068653;28;20191;-61
2021/12/09 05:08:24;;;;;;;10.98;5.45;;;1.20;99.90;;;;;;5056939;28;20224;-62
2021/12/09 05:11:00;;;;;;;15.63;5.57;;;1.20;99.90;;;;;;5068801;28;20716;-59
2021/12/09 05:13:30;;;;;;;11.80;5.75;;;1.30;99.90;;;;;;5059218;28;20212;-59
2021/12/09 05:15:59;;;;;;;13.95;4.60;;;1.30;99.90;;;;;;5071484;28;20184;-62
2021/12/09 05:18:29;;;;;;;8.85;4.47;;;1.30;99.90;;;;;;5064161;28;20220;-61
2021/12/09 05:20:59;;;;;;;9.82;4.72;;;1.40;99.90;;;;;;5052837;28;20663;-60
2021/12/09 05:23:28;;;;;;;8.10;4.45;;;1.30;99.90;;;;;;5051726;28;20278;-59
2021/12/09 05:25:56;;;;;;;13.27;5.13;;;1.40;99.90;;;;;;5052605;28;20196;-60
2021/12/09 05:28:32;;;;;;;7.78;4.22;;;1.30;99.90;;;;;;5056492;28;20235;-61
2021/12/09 05:33:49;;;;;;;10.07;4.65;;;0.90;99.90;;;;;;5071767;28;20318;-60
2021/12/09 05:36:19;;;;;;;7.18;4.00;;;1.00;99.90;;;;;;5071218;28;20257;-61
2021/12/09 05:38:47;;;;;;;10.23;5.10;;;0.90;99.90;;;;;;5060862;28;20232;-60
2021/12/09 05:41:15;;;;;;;6.82;4.70;;;1.00;99.90;;;;;;5052141;28;20258;-59
2021/12/09 05:43:44;;;;;;;10.77;4.30;;;0.80;99.90;;;;;;5050783;28;20219;-59
2021/12/09 05:46:12;;;;;;;23.35;4.90;;;0.80;99.90;;;;;;5051850;28;20196;-61
2021/12/09 05:48:41;;;;;;;5.07;3.53;;;0.90;99.90;;;;;;5051532;28;20235;-60
2021/12/09 05:51:09;;;;;;;10.75;4.05;;;0.90;99.90;;;;;;5052367;28;20206;-59
2021/12/09 05:53:39;;;;;;;5.80;3.40;;;1.00;99.90;;;;;;5060173;28;20212;-60
2021/12/09 05:56:07;;;;;;;6.30;3.63;;;1.00;99.90;;;;;;5062810;28;20219;-60
2021/12/09 05:58:35;;;;;;;10.88;6.45;;;1.10;99.90;;;;;;5052171;28;20221;-61
2021/12/09 06:01:04;;;;;;;8.98;4.38;;;1.10;99.90;;;;;;5051738;28;20196;-60
2021/12/09 06:03:33;;;;;;;6.45;4.00;;;1.20;99.90;;;;;;5051605;28;20354;-59
2021/12/09 06:06:07;;;;;;;6.07;4.70;;;1.20;99.90;;;;;;5051627;28;20278;-60
2021/12/09 06:08:38;;;;;;;11.90;5.20;;;1.20;99.90;;;;;;5053116;28;20282;-61
2021/12/09 06:11:10;;;;;;;8.10;4.28;;;1.10;99.90;;;;;;5051682;28;20199;-60
2021/12/09 06:13:38;;;;;;;9.38;5.05;;;1.20;99.90;;;;;;5057725;28;20254;-60
2021/12/09 06:16:07;;;;;;;8.25;5.30;;;1.10;99.90;;;;;;5071617;28;20188;-59
2021/12/09 06:18:36;;;;;;;5.72;4.30;;;1.10;99.90;;;;;;5070113;28;20235;-61
2021/12/09 06:21:05;;;;;;;6.70;4.80;;;1.10;99.90;;;;;;5071668;28;20543;-59
2021/12/09 06:23:33;;;;;;;12.55;5.50;;;1.20;99.90;;;;;;5070611;28;20223;-60
2021/12/09 06:26:02;;;;;;;11.10;5.15;;;1.30;99.90;;;;;;5071411;28;20654;-59
2021/12/09 06:28:31;;;;;;;8.18;4.80;;;1.40;99.90;;;;;;5070296;28;20261;-60
2021/12/09 06:31:03;;;;;;;8.02;5.45;;;1.50;99.90;;;;;;5071612;28;20196;-60
2021/12/09 06:33:32;;;;;;;7.35;4.85;;;1.50;99.90;;;;;;5071028;28;20310;-59
2021/12/09 06:36:00;;;;;;;9.48;6.72;;;1.50;99.90;;;;;;5070692;28;20195;-59
2021/12/09 06:38:29;;;;;;;11.90;6.07;;;1.40;99.90;;;;;;5070979;28;20616;-61
2021/12/09 06:40:57;;;;;;;8.35;5.72;;;1.20;99.90;;;;;;5071753;28;20624;-60
2021/12/09 06:43:25;;;;;;;9.02;6.18;;;1.30;99.90;;;;;;5070418;28;20642;-60
2021/12/09 06:45:56;;;;;;;8.52;5.88;;;1.20;99.90;;;;;;5071364;28;20199;-59
2021/12/09 06:48:25;;;;;;;18.42;6.18;;;1.10;99.90;;;;;;5070796;28;20685;-60
2021/12/09 06:50:53;;;;;;;11.55;6.70;;;1.10;99.90;;;;;;5071445;28;20221;-61
2021/12/09 06:53:21;;;;;;;12.80;6.47;;;1.00;99.90;;;;;;5058473;28;20228;-60
2021/12/09 06:55:50;;;;;;;7.95;5.28;;;0.90;99.90;;;;;;5051227;28;20191;-60
2021/12/09 06:58:21;;;;;;;9.93;5.50;;;1.10;99.90;;;;;;5051223;28;20212;-61
2021/12/09 07:00:50;;;;;;;9.02;5.32;;;1.10;99.90;;;;;;5051429;28;20254;-60
2021/12/09 07:03:21;;;;;;;9.02;5.45;;;1.20;99.90;;;;;;5050536;28;20707;-59
2021/12/09 07:05:50;;;;;;;5.80;4.82;;;1.30;99.90;;;;;;5052434;28;20185;-60
2021/12/09 07:08:19;;;;;;;9.30;5.25;;;1.40;99.90;;;;;;5051139;28;20247;-60
2021/12/09 07:10:48;;;;;;;8.70;5.28;;;1.30;99.90;;;;;;5051389;28;20246;-60
2021/12/09 07:13:16;;;;;;;13.63;5.72;;;1.40;99.90;;;;;;5054104;28;20219;-60
2021/12/09 07:15:45;;;;;;;13.57;5.50;;;1.50;99.90;;;;;;5074483;28;20658;-60
2021/12/09 07:18:13;;;;;;;9.85;5.55;;;1.60;99.90;;;;;;5074343;28;20693;-61
2021/12/09 07:20:42;;;;;;;10.00;7.50;;;1.70;99.90;;;;;;5074974;28;20202;-61
2021/12/09 07:23:10;;;;;;;12.75;7.40;;;1.80;99.90;;;;;;5073894;28;20728;-60
2021/12/09 07:25:39;;;;;;;11.85;7.10;;;1.80;99.90;;;;;;5073754;28;20199;-60
2021/12/09 07:28:07;;;;;;;10.75;6.50;;;1.90;99.90;;;;;;5056515;28;20574;-60
2021/12/09 07:30:35;;;;;;;16.13;6.78;;;1.90;99.90;;;;;;5065144;28;20203;-61
2021/12/09 07:33:04;;;;;;;15.52;7.20;;;1.90;99.90;;;;;;5061795;28;20220;-60
2021/12/09 07:35:32;;;;;;;10.23;6.90;;;1.90;99.90;;;;;;5058794;28;20197;-59
2021/12/09 07:38:03;;;;;;;10.93;6.65;;;1.90;99.90;;;;;;5061706;28;20227;-61
2021/12/09 07:40:32;;;;;;;18.80;7.72;;;1.80;99.90;;;;;;5068875;28;20265;-61
2021/12/09 07:43:00;;;;;;;12.25;5.88;;;1.70;99.90;;;;;;5055651;28;20220;-60
2021/12/09 07:45:28;;;;;;;12.85;7.55;;;1.60;99.90;;;;;;5053476;28;20779;-59
2021/12/09 07:47:57;;;;;;;14.60;7.05;;;1.50;99.90;;;;;;5085865;28;20228;-60
2021/12/09 07:50:29;;;;;;;10.13;6.60;;;1.40;99.90;;;;;;5069930;28;20634;-63
2021/12/09 07:52:57;;;;;;;11.43;7.32;;;1.40;99.90;;;;;;5059157;28;20234;-60
2021/12/09 07:55:28;;;;;;;13.43;6.53;;;1.40;99.90;;;;;;5063553;28;20196;-60
2021/12/09 07:57:57;;;;;;;10.10;6.90;;;1.40;99.90;;;;;;5068621;28;20261;-61
2021/12/09 08:00:28;;;;;;;15.20;5.65;;;1.30;99.90;;;;;;5062595;28;20208;-60
2021/12/09 08:02:57;;;;;;;8.32;5.93;;;1.40;99.90;;;;;;5060648;28;20224;-60
2021/12/09 08:05:28;;;;;;;7.10;5.28;;;1.40;99.90;;;;;;5059285;28;20212;-60
2021/12/09 08:07:56;;;;;;;8.23;5.15;;;1.30;99.90;;;;;;5064712;28;20215;-61
2021/12/09 08:10:26;;;;;;;9.48;5.32;;;1.30;99.90;;;;;;5071010;28;20212;-61
2021/12/09 08:12:57;;;;;;;11.30;5.15;;;1.30;99.90;;;;;;5055046;28;20597;-59
2021/12/09 08:15:28;;;;;;;9.45;6.13;;;1.30;99.90;;;;;;5053804;28;20711;-60
2021/12/09 08:18:02;;;;;;;8.07;5.80;;;1.30;99.90;;;;;;5058903;28;20716;-61
2021/12/09 08:20:33;;;;;;;11.65;5.50;;;1.50;99.90;;;;;;5072595;28;20216;-60
2021/12/09 08:23:01;;;;;;;10.38;5.63;;;1.40;99.90;;;;;;5067550;28;20226;-59
2021/12/09 08:25:30;;;;;;;15.73;5.70;;;1.30;99.90;;;;;;5051023;28;20234;-59
2021/12/09 08:28:00;;;;;;;12.70;7.25;;;1.40;99.90;;;;;;5068664;28;20230;-60
2021/12/09 08:30:28;;;;;;;8.52;4.53;;;1.50;99.90;;;;;;5070997;28;20692;-60
2021/12/09 08:33:16;;;;;;;10.55;5.13;;;1.50;99.90;;;;;;5064196;28;20212;-60
2021/12/09 08:35:44;;;;;;;13.52;6.32;;;1.60;99.90;;;;;;5069845;28;20265;-59
2021/12/09 08:38:12;;;;;;;14.77;7.80;;;1.70;99.90;;;;;;5057969;28;20648;-59
2021/12/09 08:40:42;;;;;;;10.88;7.25;;;1.70;99.90;;;;;;5055669;28;20570;-60
2021/12/09 08:43:12;;;;;;;8.25;5.38;;;1.80;99.90;;;;;;5087460;28;20216;-60
2021/12/09 08:45:41;;;;;;;7.53;4.50;;;1.90;99.90;;;;;;5072997;28;20199;-60
2021/12/09 08:48:10;;;;;;;9.30;4.68;;;2.10;99.90;;;;;;5072700;28;20243;-60
2021/12/09 08:50:39;;;;;;;7.85;4.50;;;2.10;99.90;;;;;;5070760;28;20231;-60
2021/12/09 08:53:10;;;;;;;10.30;6.10;;;2.20;99.90;;;;;;5062433;28;20220;-59
2021/12/09 08:55:39;;;;;;;7.70;5.43;;;2.20;99.90;;;;;;5053360;28;20552;-60
2021/12/09 08:58:08;;;;;;;10.15;6.78;;;2.30;99.90;;;;;;5055219;28;20224;-59
2021/12/09 09:00:39;;;;;;;12.65;7.13;;;2.40;99.90;;;;;;5063278;28;20268;-61
2021/12/09 09:03:08;;;;;;;8.02;5.95;;;2.40;99.90;;;;;;5070783;28;20220;-60
2021/12/09 09:05:38;;;;;;;17.42;7.40;;;2.50;99.90;;;;;;5069794;28;20617;-59
2021/12/09 09:08:07;;;;;;;9.23;7.05;;;2.50;99.90;;;;;;5055278;28;20224;-60
2021/12/09 09:10:38;;;;;;;9.75;6.40;;;2.60;99.90;;;;;;5062810;28;20582;-61
2021/12/09 09:13:07;;;;;;;11.48;7.13;;;2.60;99.90;;;;;;5067738;28;20220;-60
2021/12/09 09:15:36;;;;;;;14.77;7.05;;;2.60;99.90;;;;;;5062792;28;20553;-60
2021/12/09 09:18:07;;;;;;;9.32;6.45;;;2.80;99.90;;;;;;5057757;28;20307;-60
2021/12/09 09:20:39;;;;;;;10.55;5.68;;;2.80;99.90;;;;;;5071559;28;20215;-61
2021/12/09 09:23:10;;;;;;;11.75;6.30;;;2.80;99.90;;;;;;5053018;28;20228;-60
2021/12/09 09:25:39;;;;;;;9.00;5.70;;;2.80;99.90;;;;;;5051033;28;20192;-60
2021/12/09 09:28:08;;;;;;;5.65;3.92;;;2.90;99.90;;;;;;5065011;28;20285;-60
2021/12/09 09:30:39;;;;;;;10.05;4.90;;;3.00;99.90;;;;;;5062215;28;20204;-61
2021/12/09 09:33:11;;;;;;;7.18;4.60;;;3.20;99.90;;;;;;5059118;28;20208;-60
2021/12/09 09:35:40;;;;;;;9.27;5.13;;;3.20;99.90;;;;;;5069200;28;20200;-60
2021/12/09 09:38:09;;;;;;;7.88;4.55;;;3.30;99.90;;;;;;5064634;28;20633;-60
2021/12/09 09:40:42;;;;;;;12.15;5.32;;;3.40;99.90;;;;;;5071982;28;20215;-61
2021/12/09 09:43:28;;;;;;;10.40;4.82;;;3.50;99.90;;;;;;5065793;28;20239;-60
2021/12/09 09:46:05;;;;;;;9.18;5.35;;;3.60;99.90;;;;;;5071892;28;20188;-60
2021/12/09 09:48:36;;;;;;;10.93;5.07;;;3.70;99.90;;;;;;5071512;28;20231;-60
2021/12/09 09:51:05;;;;;;;7.10;5.65;;;3.80;99.90;;;;;;5066427;28;20193;-60
2021/12/09 09:53:34;;;;;;;8.27;4.60;;;3.80;99.90;;;;;;5071008;28;20314;-60
2021/12/09 09:56:08;;;;;;;8.82;4.78;;;3.90;99.90;;;;;;5066897;28;20657;-59
2021/12/09 09:58:36;;;;;;;5.97;3.83;;;3.90;99.90;;;;;;5053072;28;20686;-59
2021/12/09 10:01:05;;;;;;;7.95;4.50;;;4.00;99.90;;;;;;5054369;28;20242;-60
2021/12/09 10:03:40;;;;;;;11.93;5.00;;;4.10;99.90;;;;;;5051271;28;20228;-59
2021/12/09 10:06:10;;;;;;;5.60;3.50;;;4.20;99.90;;;;;;5051846;28;20196;-59
2021/12/09 10:08:39;;;;;;;11.90;4.00;;;4.40;99.90;;;;;;5059145;28;20222;-59
2021/12/09 10:11:09;;;;;;;6.03;3.70;;;4.50;99.90;;;;;;5068781;28;20187;-61
2021/12/09 10:13:39;;;;;;;11.18;5.85;;;4.50;99.90;;;;;;5051497;28;20250;-59
2021/12/09 10:16:17;;;;;;;5.80;3.30;;;4.60;99.90;;;;;;5051675;28;20196;-60
2021/12/09 10:18:48;;;;;;;6.35;3.92;;;4.70;99.90;;;;;;5051286;28;20270;-61
2021/12/09 10:21:22;;;;;;;7.93;3.80;;;4.70;99.90;;;;;;5052945;28;20279;-61
2021/12/09 10:23:59;;;;;;;6.00;2.53;;;4.70;99.90;;;;;;5051478;28;20219;-60
2021/12/09 10:26:30;;;;;;;7.53;2.25;;;4.80;99.90;;;;;;5053087;28;20642;-60
2021/12/09 10:29:10;;;;;;;8.90;3.08;;;4.90;99.90;;;;;;5051323;28;20235;-61
2021/12/09 10:31:46;;;;;;;6.65;2.83;;;4.90;99.90;;;;;;5053392;28;20559;-62
2021/12/09 10:34:26;;;;;;;4.80;4.40;;;5.00;99.90;;;;;;5054890;28;20237;-60
2021/12/09 10:37:14;;;;;;;3.80;2.45;;;5.10;99.90;;;;;;5058640;28;20196;-59
2021/12/09 10:39:46;;;;;;;4.55;3.05;;;5.10;99.90;;;;;;5052674;28;20228;-61
2021/12/09 10:42:18;;;;;;;5.78;3.00;;;5.10;99.90;;;;;;5051960;28;20192;-60
2021/12/09 10:44:50;;;;;;;5.97;3.75;;;5.10;99.90;;;;;;5051651;28;20274;-60
2021/12/09 10:47:34;;;;;;;8.05;2.55;;;5.10;99.90;;;;;;5052044;28;20246;-60
2021/12/09 10:50:11;;;;;;;3.53;2.85;;;5.10;99.90;;;;;;5054055;28;20647;-61
2021/12/09 10:52:48;;;;;;;7.95;3.50;;;5.20;99.90;;;;;;5063511;28;20219;-61
2021/12/09 10:55:22;;;;;;;5.30;3.00;;;5.30;99.90;;;;;;5075038;28;20188;-61
2021/12/09 10:58:03;;;;;;;5.82;2.53;;;5.40;99.90;;;;;;5057811;28;20216;-61
2021/12/09 11:00:39;;;;;;;5.53;2.42;;;5.40;99.90;;;;;;5056317;28;20212;-61
2021/12/09 11:03:14;;;;;;;4.05;2.55;;;5.40;99.90;;;;;;5073841;28;20219;-59
2021/12/09 11:05:48;;;;;;;5.15;2.00;;;5.30;99.90;;;;;;5072470;28;20708;-59
2021/12/09 11:08:32;;;;;;;3.95;2.30;;;5.30;99.90;;;;;;5068260;28;20625;-60
2021/12/09 11:11:09;;;;;;;5.45;2.50;;;5.20;99.90;;;;;;5058867;28;20274;-61
2021/12/09 11:13:41;;;;;;;4.40;2.65;;;5.30;99.90;;;;;;5067010;28;20295;-59
2021/12/09 11:16:10;;;;;;;4.70;2.95;;;5.40;99.90;;;;;;5066961;28;20196;-60
2021/12/09 11:18:42;;;;;;;3.67;2.67;;;5.40;99.90;;;;;;5070660;28;20245;-60
2021/12/09 11:21:18;;;;;;;4.78;3.03;;;5.40;99.90;;;;;;5075173;28;20219;-60
2021/12/09 11:23:51;;;;;;;3.15;2.45;;;5.40;99.90;;;;;;5063340;28;20239;-60
2021/12/09 11:26:33;;;;;;;5.97;3.35;;;5.40;99.90;;;;;;5058194;28;20248;-59
2021/12/09 11:29:06;;;;;;;4.57;3.28;;;5.30;99.90;;;;;;5064481;28;20719;-61
2021/12/09 11:31:46;;;;;;;4.85;3.42;;;5.30;99.90;;;;;;5055307;28;20185;-62
2021/12/09 11:34:18;;;;;;;10.30;3.55;;;5.30;99.90;;;;;;5066487;28;20653;-61
2021/12/09 11:36:56;;;;;;;8.95;4.00;;;5.30;99.90;;;;;;5062535;28;20674;-59
2021/12/09 11:39:33;;;;;;;4.60;3.28;;;5.40;99.90;;;;;;5054587;28;20224;-61
2021/12/09 11:42:21;;;;;;;6.05;3.35;;;5.40;99.90;;;;;;5062139;28;20191;-62
2021/12/09 11:45:07;;;;;;;7.32;2.60;;;5.30;99.90;;;;;;5064400;28;20261;-60
2021/12/09 11:47:36;;;;;;;3.20;2.60;;;5.30;99.90;;;;;;5065641;28;20216;-60
2021/12/09 11:50:11;;;;;;;5.10;2.78;;;5.20;99.90;;;;;;5053371;28;20278;-61
2021/12/09 11:52:43;;;;;;;3.38;2.45;;;5.30;99.90;;;;;;5069958;28;20231;-61
2021/12/09 11:55:14;;;;;;;2.63;1.98;;;5.30;99.90;;;;;;5054910;28;20199;-59
2021/12/09 11:57:46;;;;;;;3.33;1.80;;;5.40;99.90;;;;;;5069984;28;20219;-60
2021/12/09 12:07:03;;;;;;;3.67;2.20;;;5.50;99.90;;;;;;5072866;28;20273;-59
2021/12/09 12:12:44;;;;;;;3.10;1.92;;;5.50;99.90;;;;;;5030209;28;20220;-61
2021/12/09 12:15:40;;;;;;;3.20;2.20;;;5.50;99.90;;;;;;5062282;28;20198;-60
2021/12/09 12:25:00;;;;;;;5.38;2.17;;;5.40;99.90;;;;;;5072539;28;20215;-60
2021/12/09 12:36:19;;;;;;;1.38;1.27;;;5.30;99.90;;;;;;4999747;28;20213;-60
2021/12/09 12:39:06;;;;;;;2.53;1.40;;;5.40;99.90;;;;;;5054738;28;20227;-61
2021/12/09 12:41:35;;;;;;;1.85;1.58;;;5.30;99.90;;;;;;5053697;28;20197;-62
2021/12/09 12:44:13;;;;;;;2.58;1.60;;;5.30;99.90;;;;;;5062101;28;20222;-60
2021/12/09 12:46:53;;;;;;;2.45;1.60;;;5.30;99.90;;;;;;5070369;28;20212;-59
2021/12/09 12:49:31;;;;;;;1.85;1.73;;;5.30;99.90;;;;;;5070782;28;20227;-60
2021/12/09 12:52:05;;;;;;;2.88;1.63;;;5.30;99.90;;;;;;5063371;28;20195;-61
2021/12/09 12:54:51;;;;;;;3.47;1.50;;;5.20;99.90;;;;;;5053586;28;20609;-60
2021/12/09 12:57:32;;;;;;;2.15;1.25;;;5.20;99.90;;;;;;5055352;28;20184;-60
2021/12/09 13:00:09;;;;;;;3.75;1.50;;;5.20;99.90;;;;;;5070728;28;20224;-60
2021/12/09 13:05:44;;;;;;;1.30;1.00;;;5.20;99.90;;;;;;5070549;28;20605;-60
2021/12/09 13:14:06;;;;;;;2.15;0.95;;;5.20;99.90;;;;;;5029110;28;20571;-60
2021/12/09 13:16:59;;;;;;;1.00;0.80;;;5.10;99.90;;;;;;5067223;28;20211;-60
2021/12/09 13:19:34;;;;;;;1.30;0.93;;;5.10;99.90;;;;;;5068681;28;20246;-60
2021/12/09 13:22:03;;;;;;;1.85;1.33;;;5.10;99.90;;;;;;5064161;28;20562;-61
2021/12/09 13:24:46;;;;;;;2.15;1.30;;;5.10;99.90;;;;;;5052575;28;20230;-60
2021/12/09 13:27:52;;;;;;;4.25;1.40;;;5.10;99.90;;;;;;5058920;28;20180;-60
2021/12/09 13:30:34;;;;;;;1.83;1.20;;;5.10;99.90;;;;;;5063086;28;20239;-60
2021/12/09 13:36:10;;;;;;;2.13;1.60;;;5.10;99.90;;;;;;5042046;28;20226;-60
2021/12/09 13:39:10;;;;;;;1.67;1.05;;;5.10;99.90;;;;;;5052280;28;20294;-60
2021/12/09 13:47:35;;;;;;;3.13;1.55;;;5.20;99.90;;;;;;5053004;28;20211;-60
2021/12/09 13:55:39;;;;;;;1.50;1.20;;;5.30;99.90;;;;;;5068861;28;20677;-60
2021/12/09 13:58:09;;;;;;;2.05;1.02;;;5.30;99.90;;;;;;5055936;28;20216;-60
2021/12/09 14:00:40;;;;;;;1.60;1.00;;;5.30;99.90;;;;;;5067661;28;20273;-60
2021/12/09 14:03:11;;;;;;;2.50;1.10;;;5.30;99.90;;;;;;5059009;28;20227;-60
2021/12/09 14:05:53;;;;;;;1.95;0.75;;;5.40;99.90;;;;;;5053160;28;20271;-60
2021/12/09 14:08:34;;;;;;;3.13;0.95;;;5.40;99.90;;;;;;5055851;28;20234;-60